sensor_id;sensor_type;location;lat;lon;timestamp;P1;durP1;ratioP1;P2;durP2;ratioP2
3769;SDS011;1900;48.890;9.190;2023-05-18T00:01:08;12.30;;;7.07;;
3769;SDS011;1900;48.890;9.190;2023-05-18T00:03:37;18.50;;;7.40;;
3769;SDS011;1900;48.890;9.190;2023-05-18T00:06:03;18.77;;;9.07;;
3769;SDS011;1900;48.890;9.190;2023-05-18T00:08:31;13.40;;;7.80;;
3769;SDS011;1900;48.890;9.190;2023-05-18T00:11:01;15.43;;;7.93;;
3769;SDS011;1900;48.890;9.190;2023-05-18T00:13:27;25.83;;;9.10;;
3769;SDS011;1900;48.890;9.190;2023-05-18T00:15:53;16.33;;;9.17;;
3769;SDS011;1900;48.890;9.190;2023-05-18T00:18:19;17.07;;;7.80;;
3769;SDS011;1900;48.890;9.190;2023-05-18T00:20:51;15.30;;;8.50;;
3769;SDS011;1900;48.890;9.190;2023-05-18T00:23:28;13.10;;;8.00;;
3769;SDS011;1900;48.890;9.190;2023-05-18T00:25:58;9.93;;;7.20;;
3769;SDS011;1900;48.890;9.190;2023-05-18T00:28:25;16.53;;;8.20;;
3769;SDS011;1900;48.890;9.190;2023-05-18T00:30:51;14.43;;;7.93;;
3769;SDS011;1900;48.890;9.190;2023-05-18T00:33:19;14.90;;;7.73;;
3769;SDS011;1900;48.890;9.190;2023-05-18T00:35:45;14.00;;;8.03;;
3769;SDS011;1900;48.890;9.190;2023-05-18T00:38:11;15.20;;;8.90;;
3769;SDS011;1900;48.890;9.190;2023-05-18T00:40:39;14.47;;;8.47;;
3769;SDS011;1900;48.890;9.190;2023-05-18T00:43:05;10.33;;;7.63;;
3769;SDS011;1900;48.890;9.190;2023-05-18T00:45:34;11.70;;;7.03;;
3769;SDS011;1900;48.890;9.190;2023-05-18T00:47:59;15.33;;;8.70;;
3769;SDS011;1900;48.890;9.190;2023-05-18T00:50:25;14.77;;;8.03;;
3769;SDS011;1900;48.890;9.190;2023-05-18T00:52:51;13.40;;;7.17;;
3769;SDS011;1900;48.890;9.190;2023-05-18T00:55:17;10.30;;;7.30;;
3769;SDS011;1900;48.890;9.190;2023-05-18T00:57:43;13.43;;;7.37;;
3769;SDS011;1900;48.890;9.190;2023-05-18T01:00:12;12.97;;;8.20;;
3769;SDS011;1900;48.890;9.190;2023-05-18T01:02:39;14.73;;;8.40;;
3769;SDS011;1900;48.890;9.190;2023-05-18T01:05:09;13.30;;;8.00;;
3769;SDS011;1900;48.890;9.190;2023-05-18T01:07:39;19.47;;;8.33;;
3769;SDS011;1900;48.890;9.190;2023-05-18T01:10:11;13.77;;;8.37;;
3769;SDS011;1900;48.890;9.190;2023-05-18T01:12:48;10.57;;;7.43;;
3769;SDS011;1900;48.890;9.190;2023-05-18T01:15:25;17.23;;;9.07;;
3769;SDS011;1900;48.890;9.190;2023-05-18T01:20:45;21.60;;;7.27;;
3769;SDS011;1900;48.890;9.190;2023-05-18T01:28:24;13.73;;;7.30;;
3769;SDS011;1900;48.890;9.190;2023-05-18T01:30:55;17.13;;;7.30;;
3769;SDS011;1900;48.890;9.190;2023-05-18T01:33:22;10.60;;;7.43;;
3769;SDS011;1900;48.890;9.190;2023-05-18T01:35:49;14.30;;;7.43;;
3769;SDS011;1900;48.890;9.190;2023-05-18T01:38:17;22.07;;;7.20;;
3769;SDS011;1900;48.890;9.190;2023-05-18T01:40:47;12.50;;;6.40;;
3769;SDS011;1900;48.890;9.190;2023-05-18T01:43:17;9.50;;;6.83;;
3769;SDS011;1900;48.890;9.190;2023-05-18T01:45:44;13.70;;;7.00;;
3769;SDS011;1900;48.890;9.190;2023-05-18T01:48:19;9.00;;;6.30;;
3769;SDS011;1900;48.890;9.190;2023-05-18T01:50:49;14.57;;;7.50;;
3769;SDS011;1900;48.890;9.190;2023-05-18T01:53:22;11.60;;;6.70;;
3769;SDS011;1900;48.890;9.190;2023-05-18T01:55:52;11.17;;;7.00;;
3769;SDS011;1900;48.890;9.190;2023-05-18T01:58:19;19.30;;;5.80;;
3769;SDS011;1900;48.890;9.190;2023-05-18T02:00:46;11.67;;;5.80;;
3769;SDS011;1900;48.890;9.190;2023-05-18T02:03:12;9.57;;;6.13;;
3769;SDS011;1900;48.890;9.190;2023-05-18T02:05:38;7.53;;;4.97;;
3769;SDS011;1900;48.890;9.190;2023-05-18T02:08:04;11.50;;;7.20;;
3769;SDS011;1900;48.890;9.190;2023-05-18T02:10:31;8.43;;;5.87;;
3769;SDS011;1900;48.890;9.190;2023-05-18T02:12:57;11.40;;;5.87;;
3769;SDS011;1900;48.890;9.190;2023-05-18T02:15:23;11.70;;;7.20;;
3769;SDS011;1900;48.890;9.190;2023-05-18T02:17:48;10.23;;;5.77;;
3769;SDS011;1900;48.890;9.190;2023-05-18T02:20:14;7.97;;;5.53;;
3769;SDS011;1900;48.890;9.190;2023-05-18T02:22:42;10.43;;;4.80;;
3769;SDS011;1900;48.890;9.190;2023-05-18T02:25:09;9.57;;;5.67;;
3769;SDS011;1900;48.890;9.190;2023-05-18T02:27:35;9.83;;;5.20;;
3769;SDS011;1900;48.890;9.190;2023-05-18T02:30:01;9.93;;;5.60;;
3769;SDS011;1900;48.890;9.190;2023-05-18T02:32:32;9.30;;;4.77;;
3769;SDS011;1900;48.890;9.190;2023-05-18T02:35:05;10.13;;;5.63;;
3769;SDS011;1900;48.890;9.190;2023-05-18T02:37:31;8.53;;;5.03;;
3769;SDS011;1900;48.890;9.190;2023-05-18T02:39:59;8.80;;;5.90;;
3769;SDS011;1900;48.890;9.190;2023-05-18T02:42:25;10.33;;;5.80;;
3769;SDS011;1900;48.890;9.190;2023-05-18T02:44:53;9.97;;;5.90;;
3769;SDS011;1900;48.890;9.190;2023-05-18T02:47:20;12.60;;;5.60;;
3769;SDS011;1900;48.890;9.190;2023-05-18T02:49:45;15.57;;;5.60;;
3769;SDS011;1900;48.890;9.190;2023-05-18T02:52:11;8.80;;;4.93;;
3769;SDS011;1900;48.890;9.190;2023-05-18T02:54:37;10.80;;;5.70;;
3769;SDS011;1900;48.890;9.190;2023-05-18T02:57:08;9.70;;;5.20;;
3769;SDS011;1900;48.890;9.190;2023-05-18T02:59:42;12.43;;;5.93;;
3769;SDS011;1900;48.890;9.190;2023-05-18T03:02:08;13.30;;;5.60;;
3769;SDS011;1900;48.890;9.190;2023-05-18T03:04:34;8.63;;;6.00;;
3769;SDS011;1900;48.890;9.190;2023-05-18T03:06:59;13.33;;;5.23;;
3769;SDS011;1900;48.890;9.190;2023-05-18T03:09:27;10.37;;;5.17;;
3769;SDS011;1900;48.890;9.190;2023-05-18T03:11:54;8.23;;;5.20;;
3769;SDS011;1900;48.890;9.190;2023-05-18T03:14:19;11.20;;;5.97;;
3769;SDS011;1900;48.890;9.190;2023-05-18T03:16:45;7.90;;;5.30;;
3769;SDS011;1900;48.890;9.190;2023-05-18T03:19:13;11.60;;;5.50;;
3769;SDS011;1900;48.890;9.190;2023-05-18T03:21:40;10.93;;;6.00;;
3769;SDS011;1900;48.890;9.190;2023-05-18T03:24:07;11.73;;;5.40;;
3769;SDS011;1900;48.890;9.190;2023-05-18T03:26:35;11.60;;;5.73;;
3769;SDS011;1900;48.890;9.190;2023-05-18T03:29:02;8.23;;;5.60;;
3769;SDS011;1900;48.890;9.190;2023-05-18T03:31:28;8.97;;;5.60;;
3769;SDS011;1900;48.890;9.190;2023-05-18T03:33:56;9.33;;;5.53;;
3769;SDS011;1900;48.890;9.190;2023-05-18T03:36:22;9.33;;;5.17;;
3769;SDS011;1900;48.890;9.190;2023-05-18T03:38:52;12.47;;;5.60;;
3769;SDS011;1900;48.890;9.190;2023-05-18T03:41:18;7.23;;;5.20;;
3769;SDS011;1900;48.890;9.190;2023-05-18T03:43:46;8.93;;;5.40;;
3769;SDS011;1900;48.890;9.190;2023-05-18T03:46:11;9.73;;;5.13;;
3769;SDS011;1900;48.890;9.190;2023-05-18T03:48:37;12.87;;;5.70;;
3769;SDS011;1900;48.890;9.190;2023-05-18T03:51:03;9.43;;;4.90;;
3769;SDS011;1900;48.890;9.190;2023-05-18T03:53:30;9.97;;;5.10;;
3769;SDS011;1900;48.890;9.190;2023-05-18T03:55:57;12.27;;;5.63;;
3769;SDS011;1900;48.890;9.190;2023-05-18T03:58:23;10.10;;;5.37;;
3769;SDS011;1900;48.890;9.190;2023-05-18T04:00:49;8.43;;;5.70;;
3769;SDS011;1900;48.890;9.190;2023-05-18T04:03:17;8.97;;;5.17;;
3769;SDS011;1900;48.890;9.190;2023-05-18T04:05:42;7.93;;;4.87;;
3769;SDS011;1900;48.890;9.190;2023-05-18T04:08:09;8.40;;;5.20;;
3769;SDS011;1900;48.890;9.190;2023-05-18T04:10:38;15.20;;;5.70;;
3769;SDS011;1900;48.890;9.190;2023-05-18T04:13:07;8.87;;;5.20;;
3769;SDS011;1900;48.890;9.190;2023-05-18T04:15:34;7.33;;;4.80;;
3769;SDS011;1900;48.890;9.190;2023-05-18T04:18:03;8.30;;;5.00;;
3769;SDS011;1900;48.890;9.190;2023-05-18T04:20:29;8.27;;;5.10;;
3769;SDS011;1900;48.890;9.190;2023-05-18T04:22:55;12.90;;;4.60;;
3769;SDS011;1900;48.890;9.190;2023-05-18T04:25:24;10.03;;;6.33;;
3769;SDS011;1900;48.890;9.190;2023-05-18T04:27:52;9.27;;;4.90;;
3769;SDS011;1900;48.890;9.190;2023-05-18T04:30:20;14.07;;;5.10;;
3769;SDS011;1900;48.890;9.190;2023-05-18T04:32:47;17.77;;;5.37;;
3769;SDS011;1900;48.890;9.190;2023-05-18T04:35:14;7.53;;;4.30;;
3769;SDS011;1900;48.890;9.190;2023-05-18T04:37:40;9.30;;;5.07;;
3769;SDS011;1900;48.890;9.190;2023-05-18T04:40:10;12.70;;;5.10;;
3769;SDS011;1900;48.890;9.190;2023-05-18T04:42:41;7.20;;;5.87;;
3769;SDS011;1900;48.890;9.190;2023-05-18T04:45:13;10.80;;;5.50;;
3769;SDS011;1900;48.890;9.190;2023-05-18T04:47:44;14.30;;;5.50;;
3769;SDS011;1900;48.890;9.190;2023-05-18T04:50:14;12.13;;;4.70;;
3769;SDS011;1900;48.890;9.190;2023-05-18T04:52:44;9.63;;;4.80;;
3769;SDS011;1900;48.890;9.190;2023-05-18T04:55:14;14.23;;;4.60;;
3769;SDS011;1900;48.890;9.190;2023-05-18T04:57:40;8.10;;;4.80;;
3769;SDS011;1900;48.890;9.190;2023-05-18T05:00:09;10.67;;;5.57;;
3769;SDS011;1900;48.890;9.190;2023-05-18T05:02:37;7.13;;;3.90;;
3769;SDS011;1900;48.890;9.190;2023-05-18T05:05:03;13.93;;;4.07;;
3769;SDS011;1900;48.890;9.190;2023-05-18T05:07:29;13.47;;;4.13;;
3769;SDS011;1900;48.890;9.190;2023-05-18T05:09:54;12.10;;;4.73;;
3769;SDS011;1900;48.890;9.190;2023-05-18T05:12:20;8.67;;;5.20;;
3769;SDS011;1900;48.890;9.190;2023-05-18T05:14:46;7.50;;;3.70;;
3769;SDS011;1900;48.890;9.190;2023-05-18T05:17:12;12.60;;;4.63;;
3769;SDS011;1900;48.890;9.190;2023-05-18T05:19:38;5.60;;;3.60;;
3769;SDS011;1900;48.890;9.190;2023-05-18T05:22:06;15.57;;;4.77;;
3769;SDS011;1900;48.890;9.190;2023-05-18T05:24:32;8.67;;;4.13;;
3769;SDS011;1900;48.890;9.190;2023-05-18T05:26:57;11.97;;;3.90;;
3769;SDS011;1900;48.890;9.190;2023-05-18T05:29:23;13.37;;;5.10;;
3769;SDS011;1900;48.890;9.190;2023-05-18T05:31:50;7.13;;;4.30;;
3769;SDS011;1900;48.890;9.190;2023-05-18T05:34:16;10.63;;;4.83;;
3769;SDS011;1900;48.890;9.190;2023-05-18T05:36:41;10.73;;;4.60;;
3769;SDS011;1900;48.890;9.190;2023-05-18T05:39:07;16.90;;;5.60;;
3769;SDS011;1900;48.890;9.190;2023-05-18T05:41:37;8.23;;;3.90;;
3769;SDS011;1900;48.890;9.190;2023-05-18T05:44:03;10.33;;;4.73;;
3769;SDS011;1900;48.890;9.190;2023-05-18T05:46:29;10.70;;;4.90;;
3769;SDS011;1900;48.890;9.190;2023-05-18T05:48:56;10.40;;;3.70;;
3769;SDS011;1900;48.890;9.190;2023-05-18T05:51:22;11.20;;;4.50;;
3769;SDS011;1900;48.890;9.190;2023-05-18T05:53:50;10.13;;;4.90;;
3769;SDS011;1900;48.890;9.190;2023-05-18T05:56:16;10.80;;;3.70;;
3769;SDS011;1900;48.890;9.190;2023-05-18T05:58:42;12.63;;;4.03;;
3769;SDS011;1900;48.890;9.190;2023-05-18T06:01:08;15.43;;;4.77;;
3769;SDS011;1900;48.890;9.190;2023-05-18T06:03:34;11.47;;;4.60;;
3769;SDS011;1900;48.890;9.190;2023-05-18T06:06:02;7.30;;;3.43;;
3769;SDS011;1900;48.890;9.190;2023-05-18T06:08:28;9.53;;;3.70;;
3769;SDS011;1900;48.890;9.190;2023-05-18T06:10:55;10.30;;;3.73;;
3769;SDS011;1900;48.890;9.190;2023-05-18T06:13:22;11.83;;;4.47;;
3769;SDS011;1900;48.890;9.190;2023-05-18T06:15:53;9.30;;;3.73;;
3769;SDS011;1900;48.890;9.190;2023-05-18T06:18:19;10.17;;;3.80;;
3769;SDS011;1900;48.890;9.190;2023-05-18T06:20:46;9.33;;;4.00;;
3769;SDS011;1900;48.890;9.190;2023-05-18T06:23:13;12.27;;;5.40;;
3769;SDS011;1900;48.890;9.190;2023-05-18T06:25:54;10.87;;;4.10;;
3769;SDS011;1900;48.890;9.190;2023-05-18T06:28:35;9.70;;;4.00;;
3769;SDS011;1900;48.890;9.190;2023-05-18T06:31:25;7.10;;;3.83;;
3769;SDS011;1900;48.890;9.190;2023-05-18T06:33:57;7.03;;;3.67;;
3769;SDS011;1900;48.890;9.190;2023-05-18T06:36:23;9.97;;;4.83;;
3769;SDS011;1900;48.890;9.190;2023-05-18T06:38:49;5.90;;;4.00;;
3769;SDS011;1900;48.890;9.190;2023-05-18T06:41:14;8.93;;;3.57;;
3769;SDS011;1900;48.890;9.190;2023-05-18T06:43:40;8.30;;;3.60;;
3769;SDS011;1900;48.890;9.190;2023-05-18T06:46:18;7.67;;;3.40;;
3769;SDS011;1900;48.890;9.190;2023-05-18T06:48:46;6.37;;;3.97;;
3769;SDS011;1900;48.890;9.190;2023-05-18T06:51:11;12.63;;;3.70;;
3769;SDS011;1900;48.890;9.190;2023-05-18T06:53:37;9.50;;;3.80;;
3769;SDS011;1900;48.890;9.190;2023-05-18T06:56:03;11.13;;;3.77;;
3769;SDS011;1900;48.890;9.190;2023-05-18T06:58:29;7.70;;;3.77;;
3769;SDS011;1900;48.890;9.190;2023-05-18T07:00:57;10.87;;;4.23;;
3769;SDS011;1900;48.890;9.190;2023-05-18T07:03:23;9.73;;;3.37;;
3769;SDS011;1900;48.890;9.190;2023-05-18T07:05:49;6.70;;;4.23;;
3769;SDS011;1900;48.890;9.190;2023-05-18T07:08:14;6.67;;;3.50;;
3769;SDS011;1900;48.890;9.190;2023-05-18T07:10:40;11.30;;;3.63;;
3769;SDS011;1900;48.890;9.190;2023-05-18T07:13:06;9.77;;;3.90;;
3769;SDS011;1900;48.890;9.190;2023-05-18T07:15:31;7.83;;;4.10;;
3769;SDS011;1900;48.890;9.190;2023-05-18T07:17:57;11.03;;;4.50;;
3769;SDS011;1900;48.890;9.190;2023-05-18T07:20:22;8.90;;;3.77;;
3769;SDS011;1900;48.890;9.190;2023-05-18T07:22:48;11.33;;;3.83;;
3769;SDS011;1900;48.890;9.190;2023-05-18T07:25:15;11.03;;;4.20;;
3769;SDS011;1900;48.890;9.190;2023-05-18T07:27:40;7.87;;;3.60;;
3769;SDS011;1900;48.890;9.190;2023-05-18T07:30:06;8.00;;;4.00;;
3769;SDS011;1900;48.890;9.190;2023-05-18T07:32:33;13.17;;;4.57;;
3769;SDS011;1900;48.890;9.190;2023-05-18T07:34:58;12.03;;;4.33;;
3769;SDS011;1900;48.890;9.190;2023-05-18T07:37:24;10.10;;;4.17;;
3769;SDS011;1900;48.890;9.190;2023-05-18T07:39:50;6.40;;;4.27;;
3769;SDS011;1900;48.890;9.190;2023-05-18T07:42:16;11.00;;;3.70;;
3769;SDS011;1900;48.890;9.190;2023-05-18T07:44:42;9.93;;;3.97;;
3769;SDS011;1900;48.890;9.190;2023-05-18T07:47:08;8.33;;;4.30;;
3769;SDS011;1900;48.890;9.190;2023-05-18T07:49:33;9.40;;;3.93;;
3769;SDS011;1900;48.890;9.190;2023-05-18T07:51:59;12.50;;;4.70;;
3769;SDS011;1900;48.890;9.190;2023-05-18T07:54:26;10.37;;;3.50;;
3769;SDS011;1900;48.890;9.190;2023-05-18T07:56:54;13.17;;;4.00;;
3769;SDS011;1900;48.890;9.190;2023-05-18T07:59:20;6.40;;;3.13;;
3769;SDS011;1900;48.890;9.190;2023-05-18T08:01:46;15.83;;;4.53;;
3769;SDS011;1900;48.890;9.190;2023-05-18T08:04:13;8.77;;;3.60;;
3769;SDS011;1900;48.890;9.190;2023-05-18T08:06:38;9.00;;;3.90;;
3769;SDS011;1900;48.890;9.190;2023-05-18T08:09:04;8.67;;;3.33;;
3769;SDS011;1900;48.890;9.190;2023-05-18T08:11:31;9.43;;;4.17;;
3769;SDS011;1900;48.890;9.190;2023-05-18T08:13:59;21.07;;;4.30;;
3769;SDS011;1900;48.890;9.190;2023-05-18T08:16:25;10.13;;;3.83;;
3769;SDS011;1900;48.890;9.190;2023-05-18T08:18:51;13.97;;;3.80;;
3769;SDS011;1900;48.890;9.190;2023-05-18T08:21:16;13.50;;;3.70;;
3769;SDS011;1900;48.890;9.190;2023-05-18T08:23:42;8.40;;;4.23;;
3769;SDS011;1900;48.890;9.190;2023-05-18T08:26:08;14.53;;;4.40;;
3769;SDS011;1900;48.890;9.190;2023-05-18T08:28:34;10.67;;;3.27;;
3769;SDS011;1900;48.890;9.190;2023-05-18T08:30:59;8.40;;;3.27;;
3769;SDS011;1900;48.890;9.190;2023-05-18T08:33:25;9.70;;;3.47;;
3769;SDS011;1900;48.890;9.190;2023-05-18T08:35:51;9.13;;;3.60;;
3769;SDS011;1900;48.890;9.190;2023-05-18T08:38:17;9.23;;;3.80;;
3769;SDS011;1900;48.890;9.190;2023-05-18T08:40:49;21.40;;;4.37;;
3769;SDS011;1900;48.890;9.190;2023-05-18T08:43:26;8.33;;;3.90;;
3769;SDS011;1900;48.890;9.190;2023-05-18T08:48:30;10.63;;;4.03;;
3769;SDS011;1900;48.890;9.190;2023-05-18T08:50:57;12.20;;;3.97;;
3769;SDS011;1900;48.890;9.190;2023-05-18T08:53:25;11.23;;;4.43;;
3769;SDS011;1900;48.890;9.190;2023-05-18T08:55:52;9.70;;;3.77;;
3769;SDS011;1900;48.890;9.190;2023-05-18T08:58:18;10.23;;;3.60;;
3769;SDS011;1900;48.890;9.190;2023-05-18T09:00:51;11.03;;;3.60;;
3769;SDS011;1900;48.890;9.190;2023-05-18T09:03:18;7.23;;;3.20;;
3769;SDS011;1900;48.890;9.190;2023-05-18T09:05:45;6.03;;;3.30;;
3769;SDS011;1900;48.890;9.190;2023-05-18T09:08:12;8.70;;;3.40;;
3769;SDS011;1900;48.890;9.190;2023-05-18T09:10:39;7.20;;;3.50;;
3769;SDS011;1900;48.890;9.190;2023-05-18T09:13:05;9.10;;;3.80;;
3769;SDS011;1900;48.890;9.190;2023-05-18T09:15:35;8.07;;;3.60;;
3769;SDS011;1900;48.890;9.190;2023-05-18T09:18:01;11.13;;;4.57;;
3769;SDS011;1900;48.890;9.190;2023-05-18T09:20:27;9.93;;;4.30;;
3769;SDS011;1900;48.890;9.190;2023-05-18T09:22:53;7.10;;;3.57;;
3769;SDS011;1900;48.890;9.190;2023-05-18T09:25:19;9.70;;;3.70;;
3769;SDS011;1900;48.890;9.190;2023-05-18T09:27:46;12.30;;;4.07;;
3769;SDS011;1900;48.890;9.190;2023-05-18T09:30:13;6.67;;;3.17;;
3769;SDS011;1900;48.890;9.190;2023-05-18T09:32:39;13.27;;;4.33;;
3769;SDS011;1900;48.890;9.190;2023-05-18T09:35:07;6.70;;;3.30;;
3769;SDS011;1900;48.890;9.190;2023-05-18T09:37:33;8.40;;;3.20;;
3769;SDS011;1900;48.890;9.190;2023-05-18T09:40:01;10.10;;;4.30;;
3769;SDS011;1900;48.890;9.190;2023-05-18T09:42:39;10.20;;;3.33;;
3769;SDS011;1900;48.890;9.190;2023-05-18T09:47:48;8.73;;;3.53;;
3769;SDS011;1900;48.890;9.190;2023-05-18T09:50:17;8.10;;;3.57;;
3769;SDS011;1900;48.890;9.190;2023-05-18T09:52:44;8.40;;;3.73;;
3769;SDS011;1900;48.890;9.190;2023-05-18T09:55:11;7.13;;;3.60;;
3769;SDS011;1900;48.890;9.190;2023-05-18T09:57:40;9.00;;;3.90;;
3769;SDS011;1900;48.890;9.190;2023-05-18T10:00:10;7.17;;;4.10;;
3769;SDS011;1900;48.890;9.190;2023-05-18T10:02:41;10.73;;;3.57;;
3769;SDS011;1900;48.890;9.190;2023-05-18T10:05:25;6.47;;;3.50;;
3769;SDS011;1900;48.890;9.190;2023-05-18T10:07:56;13.77;;;4.10;;
3769;SDS011;1900;48.890;9.190;2023-05-18T10:10:24;8.77;;;3.40;;
3769;SDS011;1900;48.890;9.190;2023-05-18T10:12:51;10.23;;;4.10;;
3769;SDS011;1900;48.890;9.190;2023-05-18T10:15:19;10.10;;;3.53;;
3769;SDS011;1900;48.890;9.190;2023-05-18T10:17:46;8.00;;;4.23;;
3769;SDS011;1900;48.890;9.190;2023-05-18T10:20:14;5.83;;;3.43;;
3769;SDS011;1900;48.890;9.190;2023-05-18T10:22:44;6.63;;;3.70;;
3769;SDS011;1900;48.890;9.190;2023-05-18T10:25:13;8.03;;;3.33;;
3769;SDS011;1900;48.890;9.190;2023-05-18T10:27:42;15.13;;;3.77;;
3769;SDS011;1900;48.890;9.190;2023-05-18T10:30:09;7.70;;;3.83;;
3769;SDS011;1900;48.890;9.190;2023-05-18T10:32:35;8.60;;;4.00;;
3769;SDS011;1900;48.890;9.190;2023-05-18T10:35:03;10.00;;;4.50;;
3769;SDS011;1900;48.890;9.190;2023-05-18T10:37:29;12.80;;;3.40;;
3769;SDS011;1900;48.890;9.190;2023-05-18T10:39:58;6.47;;;3.20;;
3769;SDS011;1900;48.890;9.190;2023-05-18T10:42:25;12.97;;;4.17;;
3769;SDS011;1900;48.890;9.190;2023-05-18T10:44:55;9.60;;;3.80;;
3769;SDS011;1900;48.890;9.190;2023-05-18T10:47:24;7.67;;;3.17;;
3769;SDS011;1900;48.890;9.190;2023-05-18T10:49:51;8.07;;;3.17;;
3769;SDS011;1900;48.890;9.190;2023-05-18T10:52:18;9.90;;;3.40;;
3769;SDS011;1900;48.890;9.190;2023-05-18T10:54:45;11.70;;;3.73;;
3769;SDS011;1900;48.890;9.190;2023-05-18T10:57:15;8.10;;;3.93;;
3769;SDS011;1900;48.890;9.190;2023-05-18T10:59:45;8.60;;;3.70;;
3769;SDS011;1900;48.890;9.190;2023-05-18T11:02:12;6.80;;;3.80;;
3769;SDS011;1900;48.890;9.190;2023-05-18T11:04:40;6.80;;;2.80;;
3769;SDS011;1900;48.890;9.190;2023-05-18T11:07:09;11.30;;;3.40;;
3769;SDS011;1900;48.890;9.190;2023-05-18T11:09:36;7.97;;;3.83;;
3769;SDS011;1900;48.890;9.190;2023-05-18T11:12:10;15.03;;;3.40;;
3769;SDS011;1900;48.890;9.190;2023-05-18T11:14:38;8.87;;;3.70;;
3769;SDS011;1900;48.890;9.190;2023-05-18T11:25:07;7.30;;;4.10;;
3769;SDS011;1900;48.890;9.190;2023-05-18T11:27:33;11.93;;;3.10;;
3769;SDS011;1900;48.890;9.190;2023-05-18T11:29:59;14.63;;;3.13;;
3769;SDS011;1900;48.890;9.190;2023-05-18T11:32:26;11.57;;;4.20;;
3769;SDS011;1900;48.890;9.190;2023-05-18T11:34:54;9.83;;;3.87;;
3769;SDS011;1900;48.890;9.190;2023-05-18T11:40:04;12.07;;;3.67;;
3769;SDS011;1900;48.890;9.190;2023-05-18T11:42:34;6.90;;;3.27;;
3769;SDS011;1900;48.890;9.190;2023-05-18T11:47:34;8.53;;;3.80;;
3769;SDS011;1900;48.890;9.190;2023-05-18T11:50:06;8.37;;;2.87;;
3769;SDS011;1900;48.890;9.190;2023-05-18T11:52:33;5.43;;;3.00;;
3769;SDS011;1900;48.890;9.190;2023-05-18T11:55:13;5.80;;;2.90;;
3769;SDS011;1900;48.890;9.190;2023-05-18T11:57:43;11.30;;;3.90;;
3769;SDS011;1900;48.890;9.190;2023-05-18T12:00:11;5.00;;;3.40;;
3769;SDS011;1900;48.890;9.190;2023-05-18T12:02:42;7.30;;;3.50;;
3769;SDS011;1900;48.890;9.190;2023-05-18T12:05:09;11.43;;;3.40;;
3769;SDS011;1900;48.890;9.190;2023-05-18T12:07:36;11.10;;;3.33;;
3769;SDS011;1900;48.890;9.190;2023-05-18T12:10:03;12.63;;;3.93;;
3769;SDS011;1900;48.890;9.190;2023-05-18T12:12:33;9.53;;;3.00;;
3769;SDS011;1900;48.890;9.190;2023-05-18T12:15:00;6.30;;;3.27;;
3769;SDS011;1900;48.890;9.190;2023-05-18T12:20:07;7.43;;;3.50;;
3769;SDS011;1900;48.890;9.190;2023-05-18T12:22:59;5.23;;;2.83;;
3769;SDS011;1900;48.890;9.190;2023-05-18T12:25:25;5.90;;;3.90;;
3769;SDS011;1900;48.890;9.190;2023-05-18T12:27:52;14.70;;;3.30;;
3769;SDS011;1900;48.890;9.190;2023-05-18T12:30:22;6.23;;;3.27;;
3769;SDS011;1900;48.890;9.190;2023-05-18T12:32:50;10.00;;;2.83;;
3769;SDS011;1900;48.890;9.190;2023-05-18T12:35:24;12.57;;;2.87;;
3769;SDS011;1900;48.890;9.190;2023-05-18T12:37:51;7.50;;;3.03;;
3769;SDS011;1900;48.890;9.190;2023-05-18T12:40:20;4.53;;;2.53;;
3769;SDS011;1900;48.890;9.190;2023-05-18T12:42:50;5.50;;;2.87;;
3769;SDS011;1900;48.890;9.190;2023-05-18T12:45:16;9.80;;;3.40;;
3769;SDS011;1900;48.890;9.190;2023-05-18T12:47:42;6.30;;;3.00;;
3769;SDS011;1900;48.890;9.190;2023-05-18T12:50:08;6.00;;;2.60;;
3769;SDS011;1900;48.890;9.190;2023-05-18T12:52:34;7.93;;;3.03;;
3769;SDS011;1900;48.890;9.190;2023-05-18T12:55:01;6.40;;;3.17;;
3769;SDS011;1900;48.890;9.190;2023-05-18T12:57:27;6.53;;;2.90;;
3769;SDS011;1900;48.890;9.190;2023-05-18T12:59:59;7.10;;;2.93;;
3769;SDS011;1900;48.890;9.190;2023-05-18T13:05:07;8.03;;;3.33;;
3769;SDS011;1900;48.890;9.190;2023-05-18T13:07:35;10.40;;;3.17;;
3769;SDS011;1900;48.890;9.190;2023-05-18T13:10:08;8.03;;;3.50;;
3769;SDS011;1900;48.890;9.190;2023-05-18T13:12:48;5.67;;;2.63;;
3769;SDS011;1900;48.890;9.190;2023-05-18T13:17:58;6.30;;;3.00;;
3769;SDS011;1900;48.890;9.190;2023-05-18T13:20:33;10.30;;;3.00;;
3769;SDS011;1900;48.890;9.190;2023-05-18T13:23:04;11.47;;;3.20;;
3769;SDS011;1900;48.890;9.190;2023-05-18T13:25:32;6.73;;;2.90;;
3769;SDS011;1900;48.890;9.190;2023-05-18T13:27:57;7.00;;;3.07;;
3769;SDS011;1900;48.890;9.190;2023-05-18T13:30:23;7.50;;;3.17;;
3769;SDS011;1900;48.890;9.190;2023-05-18T13:32:49;9.70;;;2.97;;
3769;SDS011;1900;48.890;9.190;2023-05-18T13:35:17;6.30;;;2.87;;
3769;SDS011;1900;48.890;9.190;2023-05-18T13:37:47;9.50;;;3.20;;
3769;SDS011;1900;48.890;9.190;2023-05-18T13:40:14;9.30;;;3.23;;
3769;SDS011;1900;48.890;9.190;2023-05-18T13:42:40;9.87;;;3.20;;
3769;SDS011;1900;48.890;9.190;2023-05-18T13:45:07;8.00;;;3.17;;
3769;SDS011;1900;48.890;9.190;2023-05-18T13:47:33;7.07;;;3.00;;
3769;SDS011;1900;48.890;9.190;2023-05-18T13:49:59;8.00;;;3.07;;
3769;SDS011;1900;48.890;9.190;2023-05-18T13:52:25;12.40;;;3.47;;
3769;SDS011;1900;48.890;9.190;2023-05-18T13:54:50;9.03;;;3.63;;
3769;SDS011;1900;48.890;9.190;2023-05-18T13:57:16;6.73;;;2.53;;
3769;SDS011;1900;48.890;9.190;2023-05-18T13:59:41;9.30;;;3.77;;
3769;SDS011;1900;48.890;9.190;2023-05-18T14:02:07;5.93;;;3.47;;
3769;SDS011;1900;48.890;9.190;2023-05-18T14:04:33;9.40;;;2.90;;
3769;SDS011;1900;48.890;9.190;2023-05-18T14:06:58;7.57;;;3.00;;
3769;SDS011;1900;48.890;9.190;2023-05-18T14:09:24;6.70;;;3.00;;
3769;SDS011;1900;48.890;9.190;2023-05-18T14:11:52;9.77;;;3.30;;
3769;SDS011;1900;48.890;9.190;2023-05-18T14:14:18;7.87;;;3.00;;
3769;SDS011;1900;48.890;9.190;2023-05-18T14:16:44;8.47;;;2.83;;
3769;SDS011;1900;48.890;9.190;2023-05-18T14:19:10;9.40;;;3.00;;
3769;SDS011;1900;48.890;9.190;2023-05-18T14:21:36;12.43;;;3.57;;
3769;SDS011;1900;48.890;9.190;2023-05-18T14:24:01;6.60;;;3.17;;
3769;SDS011;1900;48.890;9.190;2023-05-18T14:26:31;9.03;;;2.57;;
3769;SDS011;1900;48.890;9.190;2023-05-18T14:28:57;10.43;;;3.30;;
3769;SDS011;1900;48.890;9.190;2023-05-18T14:31:23;6.00;;;2.73;;
3769;SDS011;1900;48.890;9.190;2023-05-18T14:33:48;8.17;;;2.93;;
3769;SDS011;1900;48.890;9.190;2023-05-18T14:36:14;5.80;;;2.60;;
3769;SDS011;1900;48.890;9.190;2023-05-18T14:38:40;6.43;;;2.43;;
3769;SDS011;1900;48.890;9.190;2023-05-18T14:41:07;9.87;;;3.20;;
3769;SDS011;1900;48.890;9.190;2023-05-18T14:43:33;5.80;;;3.50;;
3769;SDS011;1900;48.890;9.190;2023-05-18T14:45:59;8.90;;;3.03;;
3769;SDS011;1900;48.890;9.190;2023-05-18T14:48:25;10.20;;;2.50;;
3769;SDS011;1900;48.890;9.190;2023-05-18T14:50:51;8.53;;;2.40;;
3769;SDS011;1900;48.890;9.190;2023-05-18T14:53:16;13.73;;;2.83;;
3769;SDS011;1900;48.890;9.190;2023-05-18T14:55:42;8.27;;;2.90;;
3769;SDS011;1900;48.890;9.190;2023-05-18T14:58:08;8.37;;;3.03;;
3769;SDS011;1900;48.890;9.190;2023-05-18T15:00:38;7.17;;;2.83;;
3769;SDS011;1900;48.890;9.190;2023-05-18T15:03:04;5.77;;;2.80;;
3769;SDS011;1900;48.890;9.190;2023-05-18T15:05:31;8.70;;;3.00;;
3769;SDS011;1900;48.890;9.190;2023-05-18T15:07:58;5.50;;;3.33;;
3769;SDS011;1900;48.890;9.190;2023-05-18T15:10:23;9.93;;;3.20;;
3769;SDS011;1900;48.890;9.190;2023-05-18T15:12:49;11.73;;;3.50;;
3769;SDS011;1900;48.890;9.190;2023-05-18T15:15:15;6.60;;;2.73;;
3769;SDS011;1900;48.890;9.190;2023-05-18T15:17:41;7.37;;;2.80;;
3769;SDS011;1900;48.890;9.190;2023-05-18T15:20:07;8.73;;;3.10;;
3769;SDS011;1900;48.890;9.190;2023-05-18T15:22:33;7.03;;;3.40;;
3769;SDS011;1900;48.890;9.190;2023-05-18T15:25:05;5.90;;;2.60;;
3769;SDS011;1900;48.890;9.190;2023-05-18T15:27:34;10.70;;;3.20;;
3769;SDS011;1900;48.890;9.190;2023-05-18T15:30:01;5.33;;;3.20;;
3769;SDS011;1900;48.890;9.190;2023-05-18T15:32:27;5.37;;;2.70;;
3769;SDS011;1900;48.890;9.190;2023-05-18T15:34:53;6.87;;;2.63;;
3769;SDS011;1900;48.890;9.190;2023-05-18T15:37:18;5.27;;;2.73;;
3769;SDS011;1900;48.890;9.190;2023-05-18T15:39:44;9.27;;;3.10;;
3769;SDS011;1900;48.890;9.190;2023-05-18T15:42:10;11.40;;;2.53;;
3769;SDS011;1900;48.890;9.190;2023-05-18T15:44:36;4.03;;;2.37;;
3769;SDS011;1900;48.890;9.190;2023-05-18T15:47:02;9.70;;;3.00;;